ADDS TAF Board (Experimental) INFO

IDs: Format: Expanded Condensed

Updated at: 1509 UTC 30 Oct 2014

KPHL - Philadelphia Intl, PA, US

Issued at 1436 UTC 30 Oct 2014
Time1454Z30/16Z30/17Z30/18Z30/19Z30/20Z30/21Z30/22Z30/23Z31/00Z31/01Z31/02Z31/03Z31/04Z
TypeOBSPRVLPRVLPRVLPRVLPRVLPRVLPRVLPRVLPRVLPRVLPRVLPRVLPRVL
VIS10>6>6>6>6>6>6>6>6>6>6>6>6>6
CIG----------------------------
CoverSCTSCTSCTSCTSCTSCTSCTSCTSCTSCTSCTSCTSCTSCT
FltCat--VFRVFRVFRVFRVFRVFRVFRVFRVFRVFRVFRVFRVFR
WX----------------------------
WDir203503503503503503503503503503503502020
WSpd9131313131313131313131333
WGst----------------------------
R08/26
XWnd7131313131313131313131322
HWnd51111111111122
R09/27
XWnd7131313131313131313131322
HWnd51111111111122
R17/35
XWnd62222222222222
HWnd-7-13-13-13-13-13-13-13-13-13-13-13-2-2
Raw TAF
KPHL 301436Z 3015/3118 35013KT P6SM SCT050
  FM310300 02003KT P6SM SCT250


Raw METAR
KPHL 301454Z 02009KT 10SM SCT065 13/04 A3003 RMK AO2 SLP169 T01330039 51009

TAF Board Legend

Hazard VFR MVFR IFR LIFR
Visibility (sm) >5 3≤X≤5 1≤X<3 <1
Ceiling (100 ft) >30 10≤X≤30 5≤X<10 <5
Wind Speed (kt) <10 10≤X<20 20≤X<30 ≥30
Wind Gust (kt) <15 15≤X<25 25≤X<35 ≥35
Weather No Wx Reported VCTS,-TS,-FZRA TS,FZRA +TS,+FZRA


Page loaded:  15:09 UTC  |   08:09 AM Pacific  |   09:09 AM Mountain  |   10:09 AM Central  |   11:09 AM Eastern

 

ADVISORIES

FORECASTS

FORECASTS

OBSERVATIONS

USER TOOLS

ABOUT US